Aviation Digital Data Service (ADDS)

Output produced by TAFs form (1705 UTC 28 September 2016)
found at http://www.aviationweather.gov/adds/tafs/
 
KRIC 281132Z 2812/2912 VRB03KT P6SM VCSH BKN008 OVC030 
     TEMPO 2812/2815 3SM BR BKN005 OVC009 
     FM281500 11006KT P6SM OVC010 
     FM281800 14008KT 5SM -SHRA BR OVC025 
     FM282200 14006KT 4SM SHRA BR OVC040